Time;durP1;ratioP1;P1;durP2;ratioP2;P2;SDS_P1;SDS_P2;PMS_P1;PMS_P2;Temp;Humidity;BMP_temperature;BMP_pressure;BME280_temperature;BME280_humidity;BME280_pressure;Samples;Min_cycle;Max_cycle;Signal;HPM_P1;HPM_P2
2022/05/05 00:01:07;;;;;;;13.52;5.40;;;;;;;13.43;69.13;101525.22;5097175;28;20067;-73
2022/05/05 00:03:34;;;;;;;14.73;4.65;;;;;;;13.43;69.80;101526.00;5090266;28;20051;-72
2022/05/05 00:06:01;;;;;;;15.52;5.13;;;;;;;13.49;70.47;101523.59;5088219;28;20135;-72
2022/05/05 00:08:27;;;;;;;13.20;4.50;;;;;;;13.45;71.42;101526.41;5098086;28;20112;-74
2022/05/05 00:16:24;;;;;;;15.07;4.68;;;;;;;13.47;71.42;101521.25;5096147;28;20043;-72
2022/05/05 00:18:50;;;;;;;12.80;4.25;;;;;;;13.48;71.27;101520.06;5085048;28;20051;-71
2022/05/05 00:21:17;;;;;;;10.73;4.72;;;;;;;13.44;71.25;101522.03;5106555;27;20071;-73
2022/05/05 00:23:43;;;;;;;16.02;5.68;;;;;;;13.43;71.80;101517.66;5097250;27;20070;-73
2022/05/05 00:26:10;;;;;;;18.45;5.45;;;;;;;13.39;71.74;101514.09;5078603;28;20062;-74
2022/05/05 00:28:36;;;;;;;12.10;4.93;;;;;;;13.37;71.70;101516.50;5102073;28;20476;-73
2022/05/05 00:31:03;;;;;;;11.90;5.03;;;;;;;13.36;71.82;101512.09;5097028;28;20426;-72
2022/05/05 00:33:30;;;;;;;11.88;5.55;;;;;;;13.35;71.40;101509.72;5094933;28;20063;-73
2022/05/05 00:35:57;;;;;;;14.32;5.32;;;;;;;13.35;71.97;101504.97;5097248;28;20080;-73
2022/05/05 00:38:24;;;;;;;17.42;5.30;;;;;;;13.35;72.96;101504.97;5094322;28;20143;-72
2022/05/05 00:40:50;;;;;;;15.73;5.20;;;;;;;13.35;73.84;101515.28;5089249;28;20044;-73
2022/05/05 00:43:17;;;;;;;12.43;4.65;;;;;;;13.34;74.94;101506.16;5076116;28;20139;-74
2022/05/05 00:45:44;;;;;;;13.93;4.70;;;;;;;13.32;73.47;101516.88;5095909;28;20145;-72
2022/05/05 00:48:12;;;;;;;12.30;4.90;;;;;;;13.29;74.49;101509.31;5101283;28;20096;-74
2022/05/05 00:50:39;;;;;;;13.52;5.03;;;;;;;13.29;73.66;101514.88;5081370;28;20143;-72
2022/05/05 00:53:05;;;;;;;16.52;5.05;;;;;;;13.22;74.79;101508.53;5100741;28;20035;-72
2022/05/05 00:55:35;;;;;;;19.30;5.50;;;;;;;13.23;75.49;101510.91;5099168;28;20055;-72
2022/05/05 00:58:03;;;;;;;14.77;5.28;;;;;;;13.25;74.81;101510.50;5094295;28;20058;-72
2022/05/05 01:00:32;;;;;;;11.13;4.72;;;;;;;13.23;75.45;101508.13;5098031;28;20101;-72
2022/05/05 01:03:02;;;;;;;15.90;5.22;;;;;;;13.23;76.73;101512.91;5081513;28;20039;-74
2022/05/05 01:05:32;;;;;;;13.90;5.05;;;;;;;13.23;77.26;101507.34;5093597;28;20052;-73
2022/05/05 01:07:58;;;;;;;17.85;5.63;;;;;;;13.18;77.92;101505.75;5093690;27;20073;-72
2022/05/05 01:10:25;;;;;;;14.63;5.43;;;;;;;13.20;76.10;101514.50;5091331;28;20043;-74
2022/05/05 01:12:53;;;;;;;15.18;5.90;;;;;;;13.15;76.52;101512.09;5098408;28;20051;-72
2022/05/05 01:15:21;;;;;;;14.43;5.60;;;;;;;13.17;76.21;101509.72;5098654;28;20048;-71
2022/05/05 01:17:47;;;;;;;14.52;5.45;;;;;;;13.16;77.61;101502.56;5096300;28;20154;-73
2022/05/05 01:20:16;;;;;;;17.33;6.10;;;;;;;13.19;77.17;101507.31;5099571;28;20087;-71
2022/05/05 01:22:42;;;;;;;18.05;5.57;;;;;;;13.18;77.81;101507.72;5074079;28;20075;-71
2022/05/05 01:28:13;;;;;;;18.92;5.50;;;;;;;13.21;78.06;101510.50;5097405;28;20481;-71
2022/05/05 01:30:45;;;;;;;13.30;5.03;;;;;;;13.19;79.89;101512.88;5083601;28;20132;-72
2022/05/05 01:33:17;;;;;;;13.35;5.00;;;;;;;13.19;79.48;101512.88;5078348;28;20317;-71
2022/05/05 01:35:50;;;;;;;14.07;5.40;;;;;;;13.16;79.51;101507.34;5097421;28;20047;-72
2022/05/05 01:38:21;;;;;;;13.52;5.10;;;;;;;13.15;79.59;101511.28;5095311;28;20154;-72
2022/05/05 01:40:48;;;;;;;13.88;5.43;;;;;;;13.16;80.42;101512.91;5094772;28;20082;-72
2022/05/05 01:43:16;;;;;;;16.55;5.57;;;;;;;13.14;80.46;101523.59;5095564;28;20071;-73
2022/05/05 01:45:43;;;;;;;12.82;4.80;;;;;;;13.14;80.13;101523.59;5093970;28;20074;-73
2022/05/05 01:48:10;;;;;;;15.80;5.68;;;;;;;13.10;79.62;101525.59;5105643;28;20492;-74
2022/05/05 01:50:37;;;;;;;13.18;5.15;;;;;;;13.06;80.33;101531.13;5083983;28;20476;-72
2022/05/05 01:53:05;;;;;;;15.40;5.07;;;;;;;13.02;79.58;101527.53;5103653;28;20503;-72
2022/05/05 01:55:33;;;;;;;16.15;5.68;;;;;;;12.97;78.76;101514.81;5106904;27;20073;-72
2022/05/05 01:58:01;;;;;;;14.10;5.88;;;;;;;12.98;80.28;101530.34;5108091;27;20103;-73
2022/05/05 02:00:28;;;;;;;15.23;5.63;;;;;;;12.95;79.87;101527.50;5100462;28;20079;-73
2022/05/05 02:02:55;;;;;;;16.42;5.80;;;;;;;12.93;79.62;101532.69;5098856;28;20044;-74
2022/05/05 02:05:22;;;;;;;15.93;5.63;;;;;;;12.90;79.88;101530.69;5086983;28;20047;-73
2022/05/05 02:07:57;;;;;;;12.85;5.63;;;;;;;12.88;80.39;101536.63;5100832;27;20047;-77
2022/05/05 02:10:24;;;;;;;17.70;6.07;;;;;;;12.88;80.92;101535.81;5085028;28;20096;-72
2022/05/05 02:12:53;;;;;;;17.05;5.90;;;;;;;12.88;80.60;101538.59;5093449;28;20051;-72
2022/05/05 02:15:19;;;;;;;18.50;5.90;;;;;;;12.90;81.62;101539.03;5091028;28;20054;-72
2022/05/05 02:17:46;;;;;;;14.57;5.28;;;;;;;12.88;81.46;101535.81;5101074;28;20052;-72
2022/05/05 02:20:13;;;;;;;14.35;5.90;;;;;;;12.89;81.54;101532.66;5099811;28;20063;-72
2022/05/05 02:22:40;;;;;;;16.27;6.55;;;;;;;12.84;81.17;101535.84;5093230;28;20051;-72
2022/05/05 02:25:08;;;;;;;20.63;6.00;;;;;;;12.85;83.12;101545.75;5090433;28;20095;-72
2022/05/05 02:27:49;;;;;;;18.83;5.80;;;;;;;12.79;82.84;101538.16;5099051;28;20051;-73
2022/05/05 02:30:17;;;;;;;14.50;5.93;;;;;;;12.71;81.89;101542.94;5091237;28;20055;-72
2022/05/05 02:32:44;;;;;;;14.30;5.88;;;;;;;12.66;83.00;101545.28;5100758;28;20584;-71
2022/05/05 02:35:11;;;;;;;13.23;5.65;;;;;;;12.61;83.50;101542.88;5105973;28;20047;-72
2022/05/05 02:40:23;;;;;;;12.48;5.35;;;;;;;12.59;84.80;101548.03;5090771;28;20044;-72
2022/05/05 02:42:50;;;;;;;17.67;5.93;;;;;;;12.56;85.49;101532.94;5078142;28;20044;-73
2022/05/05 02:45:16;;;;;;;16.17;6.28;;;;;;;12.53;84.90;101544.81;5098020;28;20487;-71
2022/05/05 02:47:46;;;;;;;14.23;5.38;;;;;;;12.47;85.70;101537.28;5100890;28;20567;-71
2022/05/05 02:50:13;;;;;;;14.07;5.60;;;;;;;12.43;85.14;101539.25;5106485;28;20058;-71
2022/05/05 02:52:40;;;;;;;16.20;5.50;;;;;;;12.38;85.39;101545.16;5091170;28;20054;-73
2022/05/05 02:55:07;;;;;;;15.88;5.57;;;;;;;12.31;85.20;101540.38;5090738;28;20155;-71
2022/05/05 02:57:34;;;;;;;14.60;5.50;;;;;;;12.26;85.89;101543.50;5094897;28;20509;-73
2022/05/05 03:00:03;;;;;;;17.20;6.03;;;;;;;12.25;85.49;101541.16;5099337;28;20055;-72
2022/05/05 03:02:31;;;;;;;14.73;5.32;;;;;;;12.24;84.97;101540.34;5094452;28;20052;-72
2022/05/05 03:04:58;;;;;;;17.73;5.88;;;;;;;12.23;85.11;101537.97;5093167;28;20154;-72
2022/05/05 03:07:24;;;;;;;15.82;5.68;;;;;;;12.17;85.90;101536.72;5103401;27;20118;-74
2022/05/05 03:09:51;;;;;;;15.55;5.35;;;;;;;12.15;87.35;101541.88;5105401;28;20427;-74
2022/05/05 03:12:17;;;;;;;19.55;8.25;;;;;;;12.05;87.46;101534.31;5105071;28;20058;-72
2022/05/05 03:14:46;;;;;;;17.73;5.50;;;;;;;12.05;86.30;101537.06;5098055;28;20109;-70
2022/05/05 03:17:14;;;;;;;13.65;5.40;;;;;;;12.01;86.73;101541.78;5103576;28;20493;-72
2022/05/05 03:19:41;;;;;;;14.15;5.53;;;;;;;11.96;86.46;101544.94;5103599;28;20048;-71
2022/05/05 03:22:08;;;;;;;17.27;5.50;;;;;;;11.90;86.99;101541.72;5096131;28;20726;-71
2022/05/05 03:24:35;;;;;;;17.27;7.45;;;;;;;11.84;86.48;101542.47;5102812;28;20044;-74
2022/05/05 03:27:03;;;;;;;19.20;6.10;;;;;;;11.82;87.71;101545.66;5102073;28;20047;-72
2022/05/05 03:29:30;;;;;;;15.18;5.95;;;;;;;11.79;87.39;101548.38;5101779;28;20566;-72
2022/05/05 03:31:57;;;;;;;18.63;6.28;;;;;;;11.80;87.45;101553.53;5073595;28;20746;-74
2022/05/05 03:34:23;;;;;;;16.08;6.45;;;;;;;11.82;87.76;101553.16;5103886;28;20052;-73
2022/05/05 03:36:50;;;;;;;15.48;6.20;;;;;;;11.77;88.92;101548.78;5106894;28;20051;-72
2022/05/05 03:39:16;;;;;;;19.80;6.00;;;;;;;11.72;88.46;101557.47;5100897;28;20090;-72
2022/05/05 03:41:43;;;;;;;20.92;7.13;;;;;;;11.70;88.51;101553.47;5096469;28;20143;-74
2022/05/05 03:44:10;;;;;;;16.60;6.50;;;;;;;11.68;88.38;101559.38;5099067;28;20043;-73
2022/05/05 03:46:36;;;;;;;17.67;5.25;;;;;;;11.68;89.63;101561.38;5103012;28;20048;-72
2022/05/05 03:49:03;;;;;;;15.82;5.80;;;;;;;11.66;89.62;101563.72;5080203;28;20058;-72
2022/05/05 03:51:29;;;;;;;15.80;5.88;;;;;;;11.61;90.22;101562.09;5097424;28;20051;-73
2022/05/05 03:53:56;;;;;;;16.90;5.80;;;;;;;11.58;89.20;101571.16;5101631;27;20572;-72
2022/05/05 03:56:23;;;;;;;20.77;6.70;;;;;;;11.50;91.00;101554.84;5111808;27;20055;-72
2022/05/05 03:58:49;;;;;;;15.75;5.90;;;;;;;11.50;91.70;101565.94;5102865;28;20135;-72
2022/05/05 04:01:19;;;;;;;19.08;6.00;;;;;;;11.43;90.31;101577.75;5089029;28;20105;-72
2022/05/05 04:03:45;;;;;;;16.77;5.55;;;;;;;11.40;89.59;101578.53;5088480;28;20044;-73
2022/05/05 04:06:13;;;;;;;15.73;6.13;;;;;;;11.34;89.51;101579.25;5088841;28;20056;-75
2022/05/05 04:08:39;;;;;;;19.55;6.22;;;;;;;11.31;88.90;101578.03;5102971;27;20052;-72
2022/05/05 04:11:07;;;;;;;13.52;6.13;;;;;;;11.27;88.76;101584.75;5099279;28;20050;-73
2022/05/05 04:13:35;;;;;;;17.73;6.13;;;;;;;11.22;90.03;101587.84;5078411;28;20141;-72
2022/05/05 04:16:07;;;;;;;17.88;6.00;;;;;;;11.15;89.07;101583.03;5090199;28;20055;-72
2022/05/05 04:18:35;;;;;;;21.35;7.30;;;;;;;11.09;89.64;101583.75;5108198;28;20051;-72
2022/05/05 04:21:02;;;;;;;16.08;6.15;;;;;;;11.06;90.10;101590.03;5093696;28;20563;-75
2022/05/05 04:23:28;;;;;;;16.25;6.78;;;;;;;11.02;91.17;101583.66;5094968;28;20058;-74
2022/05/05 04:26:11;;;;;;;19.67;6.68;;;;;;;10.98;91.67;101596.69;5097036;28;20056;-72
2022/05/05 04:28:41;;;;;;;16.13;6.05;;;;;;;10.93;92.02;101591.50;5100476;28;20052;-71
2022/05/05 04:31:19;;;;;;;18.08;6.57;;;;;;;10.86;92.32;101597.75;5100552;28;20063;-71
2022/05/05 04:33:46;;;;;;;20.60;6.40;;;;;;;10.84;91.97;101596.53;5099597;28;20047;-71
2022/05/05 04:36:14;;;;;;;16.83;6.38;;;;;;;10.79;92.99;101594.88;5101949;28;20124;-72
2022/05/05 04:38:41;;;;;;;16.25;6.22;;;;;;;10.75;92.28;101601.56;5086862;28;20043;-71
2022/05/05 04:41:07;;;;;;;19.80;6.97;;;;;;;10.75;93.22;101605.13;5096732;28;20047;-72
2022/05/05 04:43:34;;;;;;;21.50;6.63;;;;;;;10.76;93.64;101600.41;5099793;28;20527;-72
2022/05/05 04:46:00;;;;;;;22.17;6.85;;;;;;;10.78;94.16;101603.56;5105337;28;20490;-71
2022/05/05 04:48:27;;;;;;;24.13;7.03;;;;;;;10.79;93.42;101610.69;5097715;28;20526;-73
2022/05/05 04:50:54;;;;;;;15.02;5.70;;;;;;;10.79;93.43;101599.63;5084726;28;20563;-72
2022/05/05 04:53:20;;;;;;;18.15;6.57;;;;;;;10.79;94.43;101603.19;5094416;28;20492;-72
2022/05/05 04:55:47;;;;;;;16.55;6.38;;;;;;;10.85;93.73;101609.19;5100055;28;20051;-72
2022/05/05 04:58:13;;;;;;;19.95;6.70;;;;;;;10.88;94.99;101616.75;5099134;28;20109;-75
2022/05/05 05:00:40;;;;;;;17.15;6.90;;;;;;;10.90;95.12;101617.97;5089931;28;20094;-74
2022/05/05 05:03:32;;;;;;;20.05;6.32;;;;;;;10.92;94.48;101617.56;5102700;28;20614;-71
2022/05/05 05:05:53;;;;;;;20.00;7.38;;;;;;;10.98;94.74;101613.31;5093136;28;20048;-72
2022/05/05 05:08:20;;;;;;;18.95;6.85;;;;;;;11.01;94.55;101616.13;5098151;28;20055;-73
2022/05/05 05:10:47;;;;;;;20.65;6.43;;;;;;;11.03;94.01;101622.06;5097700;28;20044;-72
2022/05/05 05:13:15;;;;;;;16.65;7.10;;;;;;;11.07;93.98;101624.88;5100829;28;20048;-71
2022/05/05 05:15:42;;;;;;;20.58;7.80;;;;;;;11.12;93.56;101625.34;5079131;28;20517;-72
2022/05/05 05:18:09;;;;;;;21.08;6.93;;;;;;;11.18;93.33;101631.34;5097656;28;20104;-72
2022/05/05 05:20:35;;;;;;;21.80;8.25;;;;;;;11.20;93.20;101635.31;5097330;28;20519;-71
2022/05/05 05:23:02;;;;;;;20.52;7.80;;;;;;;11.29;92.74;101635.00;5095568;28;20572;-75
2022/05/05 05:25:28;;;;;;;18.42;7.00;;;;;;;11.37;93.22;101633.94;5105121;28;20040;-75
2022/05/05 05:27:57;;;;;;;22.30;7.20;;;;;;;11.43;92.91;101643.47;5099016;28;20052;-72
2022/05/05 05:30:37;;;;;;;20.33;8.32;;;;;;;11.48;92.68;101641.13;5090280;28;20048;-72
2022/05/05 05:33:04;;;;;;;23.38;8.38;;;;;;;11.59;91.99;101639.28;5073115;28;20048;-71
2022/05/05 05:35:30;;;;;;;21.75;8.63;;;;;;;11.69;91.82;101638.63;5074900;28;20097;-73
2022/05/05 05:37:57;;;;;;;27.92;9.82;;;;;;;11.77;91.27;101637.50;5098329;28;20075;-71
2022/05/05 05:40:24;;;;;;;23.83;8.95;;;;;;;11.84;90.52;101643.09;5097678;28;20074;-71
2022/05/05 05:42:50;;;;;;;25.17;10.48;;;;;;;11.97;89.34;101649.13;5105452;28;20074;-72
2022/05/05 05:45:18;;;;;;;22.85;9.80;;;;;;;12.05;88.49;101645.25;5087269;28;20043;-73
2022/05/05 05:47:45;;;;;;;21.60;9.07;;;;;;;12.18;88.22;101649.28;5102125;28;20075;-72
2022/05/05 05:50:11;;;;;;;22.73;9.45;;;;;;;12.29;87.34;101658.50;5099580;28;20044;-74
2022/05/05 05:52:38;;;;;;;27.83;9.00;;;;;;;12.38;86.31;101654.19;5093536;28;20123;-73
2022/05/05 05:55:05;;;;;;;23.15;8.45;;;;;;;12.50;85.23;101664.19;5109594;28;20039;-74
2022/05/05 05:57:32;;;;;;;29.23;9.93;;;;;;;12.57;84.27;101655.91;5091253;28;20044;-75
2022/05/05 05:59:58;;;;;;;31.30;10.82;;;;;;;12.68;83.48;101665.06;5090758;28;20051;-74
2022/05/05 06:05:17;;;;;;;27.23;10.20;;;;;;;12.83;82.22;101661.22;5100903;28;20047;-74
2022/05/05 06:07:44;;;;;;;21.75;9.07;;;;;;;12.97;81.23;101669.59;5104325;27;20055;-75
2022/05/05 06:10:11;;;;;;;22.10;9.18;;;;;;;13.06;80.62;101670.03;5095557;28;20048;-75
2022/05/05 06:12:38;;;;;;;30.38;10.60;;;;;;;13.15;80.49;101667.69;5106312;28;20048;-75
2022/05/05 06:15:05;;;;;;;31.58;9.73;;;;;;;13.25;79.75;101675.28;5092127;28;20067;-75
2022/05/05 06:17:33;;;;;;;22.58;8.77;;;;;;;13.33;78.72;101667.78;5096831;28;20047;-75
2022/05/05 06:19:59;;;;;;;22.85;9.73;;;;;;;13.35;77.39;101666.19;5099509;28;20086;-74
2022/05/05 06:22:26;;;;;;;23.40;10.40;;;;;;;13.45;77.44;101676.53;5102829;28;20537;-76
2022/05/05 06:24:53;;;;;;;25.33;10.05;;;;;;;13.48;76.61;101670.19;5106468;28;20052;-72
2022/05/05 06:27:20;;;;;;;23.38;9.85;;;;;;;13.61;76.69;101671.41;5100275;28;20415;-75
2022/05/05 06:29:46;;;;;;;23.90;10.45;;;;;;;13.74;76.03;101680.94;5078876;28;20071;-73
2022/05/05 06:32:13;;;;;;;24.08;10.45;;;;;;;13.85;75.52;101678.97;5081247;28;20476;-73
2022/05/05 06:34:39;;;;;;;24.15;9.23;;;;;;;13.99;74.55;101679.00;5093344;28;20504;-73
2022/05/05 06:37:06;;;;;;;23.10;9.65;;;;;;;14.11;73.86;101678.56;5107245;27;20125;-75
2022/05/05 06:39:33;;;;;;;24.52;9.43;;;;;;;14.23;72.91;101685.75;5105764;27;20048;-74
2022/05/05 06:42:01;;;;;;;26.10;9.65;;;;;;;14.33;71.94;101682.97;5077532;28;20052;-74
2022/05/05 06:44:27;;;;;;;24.00;9.15;;;;;;;14.44;70.91;101682.94;5075549;28;20101;-73
2022/05/05 06:46:55;;;;;;;24.45;9.98;;;;;;;14.47;69.81;101691.31;5087913;28;20055;-74
2022/05/05 06:49:22;;;;;;;28.33;10.32;;;;;;;14.48;69.48;101690.09;5093804;28;20132;-75
2022/05/05 06:51:49;;;;;;;23.83;8.80;;;;;;;14.52;68.31;101690.88;5088549;28;20055;-74
2022/05/05 06:54:16;;;;;;;23.75;9.45;;;;;;;14.54;66.86;101698.84;5083865;28;20048;-71
2022/05/05 06:56:43;;;;;;;23.10;9.73;;;;;;;14.74;67.48;101697.22;5081214;28;20504;-72
2022/05/05 06:59:10;;;;;;;22.88;9.40;;;;;;;14.91;66.75;101694.38;5101521;28;20047;-71
2022/05/05 07:01:52;;;;;;;23.90;10.32;;;;;;;15.01;65.32;101693.56;5097066;28;20123;-71
2022/05/05 07:07:16;;;;;;;22.85;9.75;;;;;;;15.08;64.61;101690.72;5093690;28;20066;-72
2022/05/05 07:12:30;;;;;;;25.80;9.82;;;;;;;15.31;64.26;101698.59;5103507;28;20584;-72
2022/05/05 07:14:57;;;;;;;23.67;9.50;;;;;;;15.43;64.35;101706.53;5095726;28;20079;-71
2022/05/05 07:17:25;;;;;;;23.85;8.95;;;;;;;15.48;63.33;101704.13;5092774;28;20134;-72
2022/05/05 07:19:53;;;;;;;23.65;8.55;;;;;;;15.48;62.37;101712.47;5100438;28;20048;-72
2022/05/05 07:22:19;;;;;;;20.80;9.32;;;;;;;15.45;60.72;101716.09;5096179;28;20196;-71
2022/05/05 07:24:46;;;;;;;24.95;8.48;;;;;;;15.57;61.40;101722.38;5102477;28;20113;-67
2022/05/05 07:27:13;;;;;;;22.98;8.30;;;;;;;15.68;61.22;101720.31;5087087;28;20064;-71
2022/05/05 07:29:41;;;;;;;20.63;7.53;;;;;;;15.72;58.39;101723.91;5080868;28;20100;-72
2022/05/05 07:32:09;;;;;;;25.60;8.38;;;;;;;15.78;58.50;101723.06;5082870;28;20127;-73
2022/05/05 07:34:35;;;;;;;18.98;6.63;;;;;;;15.88;58.04;101727.78;5097005;28;20043;-70
2022/05/05 07:37:03;;;;;;;23.80;7.03;;;;;;;15.84;56.35;101731.78;5100636;27;20063;-74
2022/05/05 07:39:29;;;;;;;18.92;6.70;;;;;;;15.97;57.21;101741.28;5094576;28;20081;-71
2022/05/05 07:41:56;;;;;;;21.38;6.80;;;;;;;16.14;57.91;101730.00;5082306;28;20531;-71
2022/05/05 07:44:23;;;;;;;16.27;5.95;;;;;;;16.23;55.46;101735.09;5098703;27;20596;-71
2022/05/05 07:46:49;;;;;;;14.27;5.50;;;;;;;16.09;52.27;101721.22;5102875;27;20060;-73
2022/05/05 07:49:17;;;;;;;21.05;7.07;;;;;;;16.04;51.30;101730.88;5103250;28;20075;-71
2022/05/05 07:51:43;;;;;;;17.48;6.20;;;;;;;16.04;51.94;101732.84;5102522;28;20130;-74
2022/05/05 07:56:56;;;;;;;22.27;7.35;;;;;;;16.28;53.27;101729.88;5107108;27;20448;-72
2022/05/05 07:59:22;;;;;;;23.98;7.95;;;;;;;16.46;54.06;101740.91;5084520;28;20647;-73
2022/05/05 08:01:49;;;;;;;17.10;6.03;;;;;;;16.50;52.28;101744.47;5087509;28;20126;-72
2022/05/05 08:04:16;;;;;;;21.60;7.80;;;;;;;16.55;53.16;101738.44;5089121;28;20116;-75
2022/05/05 08:06:42;;;;;;;17.83;5.85;;;;;;;16.44;51.87;101744.09;5070583;28;20048;-73
2022/05/05 08:09:10;;;;;;;22.83;9.32;;;;;;;16.61;53.94;101748.72;5080952;28;20056;-73
2022/05/05 08:11:37;;;;;;;27.02;10.93;;;;;;;16.82;54.35;101750.53;5104160;28;20089;-71
2022/05/05 08:14:04;;;;;;;27.13;10.40;;;;;;;16.99;53.29;101744.78;5078726;28;20086;-73
2022/05/05 08:16:32;;;;;;;23.38;9.25;;;;;;;16.95;52.77;101748.81;5095668;28;20167;-71
2022/05/05 08:18:59;;;;;;;25.85;10.57;;;;;;;17.01;53.68;101744.34;5083155;28;20533;-72
2022/05/05 08:21:27;;;;;;;27.88;11.23;;;;;;;17.23;53.41;101751.28;5099986;28;20052;-71
2022/05/05 08:28:28;;;;;;;28.17;10.30;;;;;;;17.34;52.48;101760.31;5073570;28;20056;-72
2022/05/05 08:29:26;;;;;;;33.42;12.18;;;;;;;17.09;52.03;101755.03;5096817;28;20056;-72
2022/05/05 08:31:53;;;;;;;29.05;11.75;;;;;;;17.18;52.58;101754.53;5098293;28;20058;-71
2022/05/05 08:34:20;;;;;;;30.40;12.23;;;;;;;17.42;52.43;101761.88;5090254;28;20044;-73
2022/05/05 08:36:46;;;;;;;24.92;10.00;;;;;;;17.59;51.53;101766.44;5093992;28;20131;-71
2022/05/05 08:39:18;;;;;;;26.15;11.20;;;;;;;17.60;51.66;101762.44;5099011;28;20044;-73
2022/05/05 08:41:46;;;;;;;27.70;9.90;;;;;;;17.52;50.53;101758.16;5089577;28;20130;-72
2022/05/05 08:44:13;;;;;;;33.78;11.25;;;;;;;17.49;50.96;101756.19;5083509;28;20052;-71
2022/05/05 08:46:40;;;;;;;22.27;8.75;;;;;;;17.20;51.05;101763.28;5097284;28;20044;-70
2022/05/05 08:49:08;;;;;;;32.67;13.20;;;;;;;17.31;51.23;101766.75;5101482;28;20055;-69
2022/05/05 08:51:45;;;;;;;28.05;11.63;;;;;;;17.41;51.32;101768.63;5099373;28;20057;-71
2022/05/05 08:54:16;;;;;;;34.97;12.02;;;;;;;17.60;51.46;101770.81;5092462;28;20104;-74
2022/05/05 08:56:45;;;;;;;31.25;12.07;;;;;;;17.73;51.52;101763.44;5093225;28;20108;-73
2022/05/05 08:59:13;;;;;;;26.52;10.18;;;;;;;17.91;51.18;101763.97;5083431;28;20163;-70
2022/05/05 09:01:40;;;;;;;25.02;11.27;;;;;;;18.17;51.01;101765.19;5108747;27;20052;-70
2022/05/05 09:04:08;;;;;;;27.10;11.82;;;;;;;18.34;51.01;101770.53;5091562;28;20105;-70
2022/05/05 09:06:44;;;;;;;27.15;11.30;;;;;;;18.46;49.57;101763.56;5094714;28;20052;-71
2022/05/05 09:09:37;;;;;;;25.45;11.18;;;;;;;18.61;50.45;101762.88;5084224;28;20495;-69
2022/05/05 09:12:10;;;;;;;26.50;11.35;;;;;;;18.76;49.58;101767.00;5092910;28;20067;-69
2022/05/05 09:14:37;;;;;;;32.38;13.30;;;;;;;18.85;49.19;101761.63;5094632;28;20076;-71
2022/05/05 09:17:06;;;;;;;26.30;11.23;;;;;;;19.01;49.40;101763.75;5097286;28;20102;-70
2022/05/05 09:19:42;;;;;;;30.58;13.05;;;;;;;19.08;48.41;101758.81;5101876;28;20056;-71
2022/05/05 09:22:09;;;;;;;28.98;11.18;;;;;;;19.00;48.58;101762.94;5092240;28;20119;-70
2022/05/05 09:24:36;;;;;;;28.70;10.70;;;;;;;18.88;48.42;101763.59;5101159;28;20052;-69
2022/05/05 09:27:25;;;;;;;27.15;11.65;;;;;;;19.11;48.55;101760.75;5097994;28;20048;-72
2022/05/05 09:30:10;;;;;;;28.35;13.50;;;;;;;19.33;48.49;101764.72;5097712;28;20090;-72
2022/05/05 09:32:40;;;;;;;29.92;13.63;;;;;;;19.51;48.78;101765.13;5102662;28;20071;-73
2022/05/05 09:35:10;;;;;;;26.83;11.95;;;;;;;19.55;47.99;101765.06;5102342;28;20145;-72
2022/05/05 09:37:42;;;;;;;28.95;12.88;;;;;;;19.62;47.69;101768.53;5106049;28;20036;-72
2022/05/05 09:40:17;;;;;;;36.47;14.32;;;;;;;19.73;47.58;101769.09;5113372;27;20070;-72
2022/05/05 09:42:52;;;;;;;23.25;9.75;;;;;;;19.77;47.02;101772.59;5101331;28;20052;-72
2022/05/05 09:45:25;;;;;;;27.58;13.30;;;;;;;19.98;46.90;101766.50;5097634;28;20054;-73
2022/05/05 09:47:54;;;;;;;25.25;11.95;;;;;;;20.10;47.17;101768.63;5097188;28;20062;-72
2022/05/05 09:50:23;;;;;;;27.30;13.07;;;;;;;20.25;46.23;101769.88;5103707;28;20047;-72
2022/05/05 09:58:25;;;;;;;24.48;10.52;;;;;;;20.23;45.40;101775.16;5104780;28;20100;-69
2022/05/05 10:01:00;;;;;;;25.20;8.93;;;;;;;20.35;45.44;101768.84;5087210;28;20135;-71
2022/05/05 10:04:02;;;;;;;23.27;9.18;;;;;;;20.02;44.47;101772.81;5094930;28;20051;-73
2022/05/05 10:06:29;;;;;;;22.27;9.48;;;;;;;20.24;44.89;101773.94;5095562;28;20039;-71
2022/05/05 10:09:04;;;;;;;19.92;9.60;;;;;;;20.24;44.53;101778.75;5108082;27;20670;-72
2022/05/05 10:11:31;;;;;;;5.95;2.13;;;;;;;19.73;44.03;101780.31;5108164;27;20101;-73
2022/05/05 10:14:08;;;;;;;23.90;10.05;;;;;;;19.79;44.78;101775.78;5078273;28;20101;-72
2022/05/05 10:16:37;;;;;;;20.55;8.48;;;;;;;19.87;44.88;101770.75;5104431;28;20105;-72
2022/05/05 10:19:04;;;;;;;19.77;8.38;;;;;;;19.85;44.72;101765.59;5094276;28;20458;-71
2022/05/05 10:22:13;;;;;;;21.65;9.35;;;;;;;20.03;44.14;101774.41;5090665;28;20074;-72
2022/05/05 10:24:50;;;;;;;17.58;7.30;;;;;;;20.23;44.29;101763.13;5005540;28;20049;-72
2022/05/05 10:27:17;;;;;;;18.48;8.13;;;;;;;20.52;44.11;101771.66;4990618;28;20081;-72
2022/05/05 10:29:45;;;;;;;17.27;6.78;;;;;;;20.67;43.21;101772.84;5006685;28;20049;-72
2022/05/05 10:32:18;;;;;;;16.52;7.45;;;;;;;20.66;42.51;101762.84;5007429;28;20046;-72
2022/05/05 10:35:07;;;;;;;18.10;7.35;;;;;;;20.81;43.42;101783.72;5003113;28;20153;-72
2022/05/05 10:37:37;;;;;;;20.75;6.97;;;;;;;20.38;42.16;101774.81;4990378;28;20081;-77
2022/05/05 10:40:07;;;;;;;17.58;7.20;;;;;;;20.68;42.42;101766.03;5006719;28;20045;-71
2022/05/05 10:42:41;;;;;;;15.13;6.22;;;;;;;20.98;42.25;101763.59;4996681;28;20054;-73
2022/05/05 10:45:15;;;;;;;15.65;5.65;;;;;;;21.44;42.73;101765.13;4999159;28;20136;-72
2022/05/05 10:47:47;;;;;;;17.52;7.13;;;;;;;21.93;41.72;101769.25;4986628;28;20104;-74
2022/05/05 10:50:39;;;;;;;19.45;6.25;;;;;;;21.95;40.34;101763.97;5003513;28;20502;-72
2022/05/05 10:53:07;;;;;;;16.38;6.45;;;;;;;21.95;41.26;101772.44;5003921;28;20174;-74
2022/05/05 10:55:43;;;;;;;18.13;6.07;;;;;;;21.90;40.66;101767.38;5043356;28;20125;-74
2022/05/05 10:59:04;;;;;;;16.38;6.13;;;;;;;21.87;39.49;101762.63;5097675;27;20504;-74
2022/05/05 11:01:53;;;;;;;16.33;6.85;;;;;;;21.85;40.33;101762.28;5086548;28;20044;-73
2022/05/05 11:04:24;;;;;;;17.52;6.07;;;;;;;21.67;39.15;101762.78;5098963;28;20599;-73
2022/05/05 11:07:32;;;;;;;17.58;6.57;;;;;;;21.41;40.19;101764.00;5092778;28;20514;-74
2022/05/05 11:09:59;;;;;;;15.77;6.03;;;;;;;21.58;40.61;101764.69;5074969;28;20047;-70
2022/05/05 11:12:31;;;;;;;17.38;6.40;;;;;;;21.76;40.23;101767.78;5094697;28;20086;-69
2022/05/05 11:23:41;;;;;;;15.75;6.78;;;;;;;21.57;40.07;101765.94;5103993;28;20139;-71
2022/05/05 11:26:09;;;;;;;16.45;5.38;;;;;;;21.79;39.24;101776.16;5076398;28;20674;-71
2022/05/05 11:28:36;;;;;;;15.70;6.18;;;;;;;22.08;39.66;101765.56;5103517;28;20109;-72
2022/05/05 11:31:03;;;;;;;15.52;5.80;;;;;;;22.21;39.48;101779.66;5097130;28;20086;-70
2022/05/05 11:33:29;;;;;;;14.68;6.03;;;;;;;22.22;38.72;101769.97;5095997;28;20503;-72
2022/05/05 11:35:58;;;;;;;17.20;6.57;;;;;;;22.52;38.82;101766.56;5098000;28;20787;-74
2022/05/05 11:38:28;;;;;;;14.90;6.25;;;;;;;22.79;38.30;101772.47;5103227;28;20047;-72
2022/05/05 11:41:20;;;;;;;14.88;5.35;;;;;;;22.93;37.40;101771.97;5103567;28;20051;-72
2022/05/05 11:46:33;;;;;;;;;;;;;;;23.26;36.47;101766.78;5105694;28;20487;-72
2022/05/05 11:49:00;;;;;;;12.43;5.22;;;;;;;23.60;37.44;101749.75;5093372;28;19923;-72
2022/05/05 11:51:29;;;;;;;10.10;4.28;;;;;;;23.37;34.89;101755.88;5098197;28;20148;-71
2022/05/05 11:54:08;;;;;;;8.55;2.63;;;;;;;22.60;36.83;101770.72;5089523;28;20062;-73
2022/05/05 11:56:37;;;;;;;16.65;7.28;;;;;;;22.84;37.33;101766.25;5089998;28;20047;-73
2022/05/05 12:02:09;;;;;;;16.38;6.97;;;;;;;24.04;36.04;101757.69;5088146;28;20082;-70
2022/05/05 12:04:41;;;;;;;16.08;6.32;;;;;;;23.80;36.05;101753.00;5084306;28;20044;-71
2022/05/05 12:07:12;;;;;;;17.58;6.70;;;;;;;23.78;35.52;101761.94;5077900;28;20048;-71
2022/05/05 12:09:39;;;;;;;18.15;6.57;;;;;;;23.77;35.93;101751.88;5099189;27;20131;-70
2022/05/05 12:12:14;;;;;;;16.67;5.45;;;;;;;23.98;35.75;101753.09;5102357;28;20047;-70